Apple Valley, Utah
Current Conditions -  °F | °C
As of 7:15 AM on Friday 31 Oct 2014 (Local Time) from KAZC Reporting Station
Clear Clear  
Wind Chill: 50°   Ceiling: Unl
Heat Index: 50°   Visibility: 10mi
Dew Point: 26°   Wind: 7mph
Humidity: 39%   Direction: 160°SSE
Pressure: 30.12"   Gusts: NA
Location:  37.2274°N, 113.139°W
Report Text: KAZC 311315Z AUTO 16006KT 10SM CLR 10/M03 A3012 RMK AO2 T01001034
Loading
Personal Weather Stations






























Interactive Weather Map
Tropical Storm Tracking
New forecast layout! Learn more

10-Day Weather Forecast

Advertisements
Track Severe Weather on mobile